Time;durP1;ratioP1;P1;durP2;ratioP2;P2;SDS_P1;SDS_P2;PMS_P1;PMS_P2;Temp;Humidity;BMP_temperature;BMP_pressure;BME280_temperature;BME280_humidity;BME280_pressure;Samples;Min_cycle;Max_cycle;Signal;HPM_P1;HPM_P2
2021/04/09 00:01:31;;;;;;;10.43;7.03;;;4.60;96.80;;;;;;4973443;28;20314;-75
2021/04/09 00:03:58;;;;;;;8.93;6.50;;;4.60;96.80;;;;;;4973783;28;20214;-75
2021/04/09 00:06:24;;;;;;;11.43;7.18;;;4.50;97.20;;;;;;4954338;28;20702;-75
2021/04/09 00:08:51;;;;;;;7.70;6.85;;;4.50;97.80;;;;;;4961662;28;20349;-75
2021/04/09 00:11:18;;;;;;;9.13;6.85;;;4.40;98.00;;;;;;4957478;28;20733;-75
2021/04/09 00:13:44;;;;;;;10.77;7.20;;;4.30;98.60;;;;;;4977063;28;20219;-75
2021/04/09 00:16:11;;;;;;;11.82;6.88;;;4.30;98.50;;;;;;4953657;28;20689;-75
2021/04/09 00:18:37;;;;;;;9.20;6.43;;;4.20;98.80;;;;;;4974364;28;20210;-75
2021/04/09 00:21:04;;;;;;;15.52;7.85;;;4.20;98.50;;;;;;4956333;28;20313;-75
2021/04/09 00:23:30;;;;;;;7.57;6.63;;;4.20;98.70;;;;;;4956386;28;20472;-75
2021/04/09 00:25:57;;;;;;;9.82;6.20;;;4.20;99.10;;;;;;4973637;28;20247;-75
2021/04/09 00:28:24;;;;;;;8.48;6.55;;;4.20;99.20;;;;;;4973941;28;20232;-75
2021/04/09 00:30:50;;;;;;;12.20;7.00;;;4.20;99.60;;;;;;4954987;28;20299;-75
2021/04/09 00:33:17;;;;;;;7.78;6.57;;;4.10;99.50;;;;;;4974080;28;20258;-75
2021/04/09 00:35:45;;;;;;;10.10;6.25;;;4.10;99.30;;;;;;4956434;28;20219;-75
2021/04/09 00:38:12;;;;;;;10.52;6.22;;;4.10;99.70;;;;;;4953725;28;20315;-75
2021/04/09 00:40:39;;;;;;;9.18;6.55;;;4.00;99.90;;;;;;4973557;28;20306;-75
2021/04/09 00:43:07;;;;;;;11.68;6.72;;;4.00;99.90;;;;;;4973243;28;20207;-75
2021/04/09 00:45:37;;;;;;;7.72;6.13;;;3.90;99.90;;;;;;4968986;28;20231;-75
2021/04/09 00:48:05;;;;;;;10.52;7.15;;;3.80;99.90;;;;;;4973522;28;20217;-75
2021/04/09 00:50:33;;;;;;;8.68;6.30;;;3.80;99.90;;;;;;4973532;28;20219;-75
2021/04/09 00:53:02;;;;;;;8.43;6.50;;;3.70;99.90;;;;;;4956020;28;20222;-75
2021/04/09 00:55:29;;;;;;;9.80;6.43;;;3.80;99.90;;;;;;4946962;28;20230;-75
2021/04/09 00:57:59;;;;;;;7.80;5.70;;;3.70;99.90;;;;;;4973446;28;20574;-75
2021/04/09 01:00:26;;;;;;;9.90;6.97;;;3.60;99.90;;;;;;4970302;28;20763;-75
2021/04/09 01:02:54;;;;;;;11.27;6.72;;;3.60;99.90;;;;;;4956195;28;20254;-75
2021/04/09 01:05:20;;;;;;;7.38;6.60;;;3.60;99.90;;;;;;4972078;28;20297;-75
2021/04/09 01:07:47;;;;;;;8.95;6.75;;;3.60;99.90;;;;;;4964617;28;20204;-75
2021/04/09 01:10:16;;;;;;;9.15;6.88;;;3.60;99.90;;;;;;4951552;28;20223;-75
2021/04/09 01:12:44;;;;;;;7.07;5.65;;;3.50;99.90;;;;;;4954311;28;20266;-75
2021/04/09 01:15:11;;;;;;;9.80;6.03;;;3.50;99.90;;;;;;4964707;28;20230;-75
2021/04/09 01:17:43;;;;;;;7.85;6.82;;;3.50;99.90;;;;;;4974546;28;20269;-75
2021/04/09 01:20:18;;;;;;;9.65;6.82;;;3.40;99.90;;;;;;4956077;28;20226;-75
2021/04/09 01:23:04;;;;;;;8.10;7.10;;;3.40;99.90;;;;;;4972823;28;20697;-75
2021/04/09 01:25:59;;;;;;;12.18;6.57;;;3.40;99.90;;;;;;4953317;28;20660;-75
2021/04/09 01:28:55;;;;;;;8.13;6.97;;;3.40;99.90;;;;;;4955744;28;20377;-75
2021/04/09 01:31:26;;;;;;;11.48;6.50;;;3.30;99.90;;;;;;4888701;28;20251;-75
2021/04/09 01:33:58;;;;;;;10.60;7.50;;;3.20;99.90;;;;;;4972815;28;20226;-75
2021/04/09 01:36:32;;;;;;;10.63;8.10;;;3.20;99.90;;;;;;4955628;28;20219;-75
2021/04/09 01:39:13;;;;;;;9.82;7.50;;;3.10;99.90;;;;;;4960552;28;20710;-75
2021/04/09 01:41:40;;;;;;;8.63;7.03;;;3.10;99.90;;;;;;4972345;28;20226;-75
2021/04/09 01:44:11;;;;;;;9.50;6.85;;;3.00;99.90;;;;;;4953330;28;20269;-75
2021/04/09 01:46:42;;;;;;;9.32;7.53;;;2.90;99.90;;;;;;4968597;28;20218;-75
2021/04/09 01:49:11;;;;;;;10.65;7.35;;;2.90;99.90;;;;;;4972352;28;20215;-75
2021/04/09 01:51:39;;;;;;;9.45;7.20;;;2.90;99.90;;;;;;4972167;28;20688;-75
2021/04/09 01:54:07;;;;;;;8.63;6.90;;;2.80;99.90;;;;;;4952230;28;20644;-75
2021/04/09 01:56:36;;;;;;;10.57;6.45;;;2.80;99.90;;;;;;4969406;28;20229;-75
2021/04/09 01:59:05;;;;;;;10.30;7.50;;;2.80;99.90;;;;;;4971269;28;20764;-75
2021/04/09 02:01:32;;;;;;;11.85;7.85;;;2.90;99.90;;;;;;4952730;28;20242;-75
2021/04/09 02:04:00;;;;;;;9.70;7.95;;;2.90;99.90;;;;;;4971943;28;20219;-75
2021/04/09 02:06:27;;;;;;;10.32;7.43;;;2.90;99.90;;;;;;4971530;28;20277;-75
2021/04/09 02:08:55;;;;;;;8.63;7.53;;;2.90;99.90;;;;;;4962619;28;20211;-75
2021/04/09 02:11:23;;;;;;;9.65;7.70;;;2.90;99.90;;;;;;4972466;28;20644;-75
2021/04/09 02:13:51;;;;;;;11.88;7.35;;;3.00;99.90;;;;;;4955261;28;20215;-75
2021/04/09 02:16:20;;;;;;;9.00;6.63;;;3.10;99.90;;;;;;4963111;28;20253;-75
2021/04/09 02:18:47;;;;;;;9.98;7.63;;;3.10;99.90;;;;;;4972209;28;20203;-75
2021/04/09 02:21:13;;;;;;;10.13;7.93;;;3.10;99.90;;;;;;4972051;28;20301;-75
2021/04/09 02:23:40;;;;;;;8.63;7.72;;;3.20;99.90;;;;;;4973170;28;20489;-75
2021/04/09 02:26:06;;;;;;;8.55;7.65;;;3.20;99.90;;;;;;4972006;28;20310;-75
2021/04/09 02:28:34;;;;;;;10.65;8.35;;;3.20;99.90;;;;;;4972078;28;20207;-75
2021/04/09 02:31:03;;;;;;;14.25;8.48;;;3.30;99.90;;;;;;4967705;28;20277;-75
2021/04/09 02:33:31;;;;;;;9.95;7.68;;;3.20;99.90;;;;;;4967594;28;20242;-75
2021/04/09 02:35:58;;;;;;;11.55;7.75;;;3.20;99.90;;;;;;4971647;28;20648;-75
2021/04/09 02:38:28;;;;;;;10.23;8.25;;;3.20;99.90;;;;;;4970954;28;20238;-75
2021/04/09 02:40:58;;;;;;;13.27;8.40;;;3.30;99.90;;;;;;4971712;28;20231;-75
2021/04/09 02:43:25;;;;;;;11.15;8.15;;;3.20;99.90;;;;;;4972185;28;20211;-75
2021/04/09 02:45:55;;;;;;;12.35;8.85;;;3.10;99.90;;;;;;4934266;28;20227;-75
2021/04/09 02:48:23;;;;;;;9.70;7.53;;;3.10;99.90;;;;;;4970071;28;20724;-75
2021/04/09 02:50:50;;;;;;;10.55;8.18;;;3.10;99.90;;;;;;4954630;28;20281;-75
2021/04/09 02:53:28;;;;;;;10.23;7.80;;;3.10;99.90;;;;;;4961101;28;20238;-75
2021/04/09 02:55:56;;;;;;;9.77;8.02;;;3.00;99.90;;;;;;4965778;28;20219;-75
2021/04/09 02:58:25;;;;;;;8.10;6.80;;;3.00;99.90;;;;;;4976402;28;20641;-75
2021/04/09 03:00:53;;;;;;;13.75;8.95;;;3.00;99.90;;;;;;4966876;28;20227;-75
2021/04/09 03:03:20;;;;;;;12.90;8.73;;;2.90;99.90;;;;;;4975780;28;20199;-75
2021/04/09 03:05:50;;;;;;;10.48;8.77;;;3.00;99.90;;;;;;4974564;28;20230;-75
2021/04/09 03:08:18;;;;;;;10.45;8.05;;;2.90;99.90;;;;;;4972743;28;20335;-75
2021/04/09 03:10:45;;;;;;;15.25;8.85;;;2.80;99.90;;;;;;4955727;28;20231;-75
2021/04/09 03:13:12;;;;;;;10.68;8.57;;;2.80;99.90;;;;;;4973817;28;20191;-75
2021/04/09 03:15:59;;;;;;;15.27;8.85;;;2.90;99.90;;;;;;4968115;28;20310;-75
2021/04/09 03:18:29;;;;;;;12.80;9.13;;;2.80;99.90;;;;;;4975603;28;20187;-75
2021/04/09 03:20:56;;;;;;;12.23;8.77;;;2.80;99.90;;;;;;4974699;28;20309;-75
2021/04/09 03:23:22;;;;;;;13.23;9.77;;;2.90;99.90;;;;;;4954155;29;20279;-75
2021/04/09 03:25:49;;;;;;;10.57;9.02;;;2.90;99.90;;;;;;4944910;28;20746;-75
2021/04/09 03:28:16;;;;;;;11.05;8.00;;;2.90;99.90;;;;;;4975860;28;20187;-75
2021/04/09 03:30:49;;;;;;;12.38;9.35;;;2.90;99.90;;;;;;4956430;28;20725;-75
2021/04/09 03:33:20;;;;;;;13.38;8.35;;;2.90;99.90;;;;;;4958397;28;20314;-75
2021/04/09 03:35:47;;;;;;;10.30;7.80;;;2.90;99.90;;;;;;4973828;28;20562;-75
2021/04/09 03:38:14;;;;;;;16.35;9.00;;;2.80;99.90;;;;;;4954508;29;20283;-75
2021/04/09 03:40:41;;;;;;;11.65;8.88;;;2.70;99.90;;;;;;4962743;28;20223;-75
2021/04/09 03:43:13;;;;;;;11.43;8.30;;;2.70;99.90;;;;;;4975523;28;20646;-75
2021/04/09 03:45:40;;;;;;;14.77;9.10;;;2.70;99.90;;;;;;4972404;28;20751;-75
2021/04/09 03:48:07;;;;;;;11.95;8.57;;;2.70;99.90;;;;;;4975294;28;20234;-75
2021/04/09 03:50:34;;;;;;;12.55;8.80;;;2.70;99.90;;;;;;4956441;28;20680;-75
2021/04/09 03:53:02;;;;;;;16.92;8.98;;;2.70;99.90;;;;;;4968102;28;20619;-75
2021/04/09 03:55:28;;;;;;;16.58;8.15;;;2.70;99.90;;;;;;4968987;28;20255;-75
2021/04/09 03:57:55;;;;;;;10.95;7.25;;;2.60;99.90;;;;;;4974914;28;20585;-75
2021/04/09 04:00:23;;;;;;;10.52;9.18;;;2.60;99.90;;;;;;4954808;28;20697;-75
2021/04/09 04:02:50;;;;;;;10.30;8.75;;;2.60;99.90;;;;;;4974709;28;20238;-75
2021/04/09 04:05:18;;;;;;;15.40;7.93;;;2.70;99.90;;;;;;4956509;28;20641;-75
2021/04/09 04:07:45;;;;;;;9.88;8.05;;;2.70;99.90;;;;;;4972496;28;20188;-75
2021/04/09 04:10:12;;;;;;;10.63;9.30;;;2.70;99.90;;;;;;4973942;28;20289;-75
2021/04/09 04:12:38;;;;;;;13.13;8.60;;;2.70;99.90;;;;;;4974080;28;20222;-75
2021/04/09 04:15:06;;;;;;;10.15;7.63;;;2.70;99.90;;;;;;4959066;28;20322;-75
2021/04/09 04:17:33;;;;;;;8.73;7.43;;;2.70;99.90;;;;;;4970650;28;20684;-75
2021/04/09 04:20:00;;;;;;;9.50;7.22;;;2.80;99.90;;;;;;4973714;28;20237;-75
2021/04/09 04:22:26;;;;;;;8.68;6.78;;;2.80;99.90;;;;;;4957352;28;20636;-75
2021/04/09 04:24:53;;;;;;;7.25;6.45;;;2.90;99.90;;;;;;4970657;28;20233;-75
2021/04/09 04:27:20;;;;;;;8.52;7.10;;;3.00;99.90;;;;;;4963951;28;20277;-75
2021/04/09 04:29:47;;;;;;;9.50;7.15;;;3.00;99.90;;;;;;4970650;28;21011;-75
2021/04/09 04:32:13;;;;;;;9.57;6.50;;;3.00;99.90;;;;;;4973968;28;20191;-75
2021/04/09 04:34:40;;;;;;;10.10;7.07;;;3.10;99.90;;;;;;4973408;28;20215;-75
2021/04/09 04:37:07;;;;;;;16.42;8.15;;;3.10;99.90;;;;;;4973949;28;20198;-75
2021/04/09 04:39:34;;;;;;;10.70;7.88;;;3.20;99.90;;;;;;4969107;28;20242;-75
2021/04/09 04:42:01;;;;;;;9.70;7.75;;;3.30;99.90;;;;;;4973731;28;20224;-75
2021/04/09 04:44:27;;;;;;;8.38;6.95;;;3.30;99.90;;;;;;4952622;28;20299;-75
2021/04/09 04:46:54;;;;;;;12.05;7.72;;;3.40;99.90;;;;;;4959563;28;20622;-75
2021/04/09 04:49:21;;;;;;;8.80;7.30;;;3.40;99.90;;;;;;4973846;28;20565;-75
2021/04/09 04:51:48;;;;;;;11.60;8.20;;;3.30;99.90;;;;;;4955658;28;20219;-75
2021/04/09 04:54:15;;;;;;;13.63;8.10;;;3.20;99.90;;;;;;4968029;28;20196;-75
2021/04/09 04:56:46;;;;;;;12.65;9.05;;;3.20;99.90;;;;;;4969866;28;20221;-75
2021/04/09 04:59:13;;;;;;;11.55;8.30;;;3.10;99.90;;;;;;4973256;28;20187;-75
2021/04/09 05:01:40;;;;;;;12.52;8.35;;;3.10;99.90;;;;;;4972699;28;20227;-75
2021/04/09 05:04:06;;;;;;;10.55;8.68;;;3.00;99.90;;;;;;4973428;28;20275;-75
2021/04/09 05:06:33;;;;;;;12.07;8.85;;;3.00;99.90;;;;;;4972489;28;20661;-75
2021/04/09 05:08:59;;;;;;;13.30;9.75;;;3.00;99.90;;;;;;4970726;28;20206;-75
2021/04/09 05:11:25;;;;;;;11.45;8.70;;;2.90;99.90;;;;;;4969927;28;20290;-75
2021/04/09 05:13:52;;;;;;;10.75;9.45;;;2.80;99.90;;;;;;4973622;28;20179;-75
2021/04/09 05:16:18;;;;;;;13.73;9.82;;;2.80;99.90;;;;;;4968808;28;20682;-75
2021/04/09 05:18:45;;;;;;;12.18;8.77;;;2.80;99.90;;;;;;4972665;28;20191;-75
2021/04/09 05:21:11;;;;;;;15.13;9.65;;;2.90;99.90;;;;;;4972185;28;20733;-75
2021/04/09 05:23:38;;;;;;;11.02;8.52;;;2.90;99.90;;;;;;4937306;28;20279;-75
2021/04/09 05:26:04;;;;;;;18.25;9.68;;;2.90;99.90;;;;;;4947609;28;20246;-75
2021/04/09 05:28:31;;;;;;;14.35;8.45;;;3.00;99.90;;;;;;4973025;28;20274;-75
2021/04/09 05:30:57;;;;;;;10.82;8.73;;;3.10;99.90;;;;;;4966581;28;20227;-75
2021/04/09 05:33:24;;;;;;;10.93;7.82;;;3.10;99.90;;;;;;4973181;28;20199;-75
2021/04/09 05:35:51;;;;;;;13.23;7.93;;;3.20;99.90;;;;;;4971675;28;20305;-75
2021/04/09 05:38:17;;;;;;;8.85;7.00;;;3.30;99.90;;;;;;4972970;28;20238;-75
2021/04/09 05:40:44;;;;;;;11.70;8.55;;;3.30;99.90;;;;;;4970985;28;20222;-75
2021/04/09 05:43:10;;;;;;;13.65;7.03;;;3.40;99.90;;;;;;4972793;28;20199;-76
2021/04/09 05:45:37;;;;;;;10.05;6.78;;;3.60;99.90;;;;;;4952464;28;20222;-76
2021/04/09 05:48:05;;;;;;;9.75;7.65;;;3.80;99.90;;;;;;4955766;28;20210;-76
2021/04/09 05:50:33;;;;;;;7.30;6.35;;;3.90;99.90;;;;;;4971705;28;20287;-76
2021/04/09 05:53:00;;;;;;;16.52;9.00;;;4.00;99.90;;;;;;4952664;28;20219;-76
2021/04/09 05:55:29;;;;;;;11.80;6.68;;;4.30;99.90;;;;;;4966585;28;20227;-76
2021/04/09 05:57:59;;;;;;;10.18;6.57;;;4.50;99.90;;;;;;4955049;28;20241;-76
2021/04/09 06:00:25;;;;;;;8.32;6.30;;;4.60;99.90;;;;;;4961141;28;20288;-76
2021/04/09 06:02:55;;;;;;;12.32;6.38;;;4.70;99.90;;;;;;4972320;28;20211;-76
2021/04/09 06:05:22;;;;;;;9.88;6.55;;;5.00;99.90;;;;;;4971345;28;20231;-76
2021/04/09 06:07:54;;;;;;;11.05;7.55;;;5.10;99.90;;;;;;4956080;28;20207;-76
2021/04/09 06:10:21;;;;;;;8.20;7.32;;;5.30;99.90;;;;;;4952764;28;20277;-76
2021/04/09 06:12:49;;;;;;;9.68;6.75;;;5.50;99.90;;;;;;4954571;28;20708;-76
2021/04/09 06:15:19;;;;;;;11.13;6.38;;;5.70;99.90;;;;;;4961421;28;20242;-76
2021/04/09 06:17:45;;;;;;;7.22;6.07;;;5.80;99.90;;;;;;4936070;28;20310;-76
2021/04/09 06:20:12;;;;;;;12.75;6.45;;;5.80;99.90;;;;;;4952539;28;20234;-76
2021/04/09 06:22:39;;;;;;;7.80;5.90;;;5.90;99.90;;;;;;4970793;28;20242;-76
2021/04/09 06:25:09;;;;;;;10.90;6.65;;;6.20;99.90;;;;;;4961835;28;20278;-76
2021/04/09 06:27:39;;;;;;;9.18;5.75;;;6.30;99.90;;;;;;4947747;28;20301;-76
2021/04/09 06:30:06;;;;;;;9.55;6.03;;;6.40;99.90;;;;;;4952981;28;20717;-76
2021/04/09 06:32:35;;;;;;;11.45;6.10;;;6.40;99.90;;;;;;4976145;28;20759;-75
2021/04/09 06:35:03;;;;;;;8.73;5.60;;;6.40;99.90;;;;;;4975260;28;20233;-75
2021/04/09 06:37:30;;;;;;;7.97;5.95;;;6.50;99.90;;;;;;4975648;28;20707;-75
2021/04/09 06:39:56;;;;;;;7.05;5.65;;;6.60;99.90;;;;;;4955602;28;20223;-75
2021/04/09 06:42:24;;;;;;;7.78;5.47;;;6.70;99.90;;;;;;4958712;28;20625;-76
2021/04/09 06:44:51;;;;;;;8.80;6.10;;;6.60;99.90;;;;;;4971127;28;20318;-76
2021/04/09 06:47:19;;;;;;;11.32;5.78;;;6.60;99.90;;;;;;4975522;28;20629;-76
2021/04/09 06:49:45;;;;;;;8.05;6.20;;;6.80;99.90;;;;;;4957963;28;20199;-76
2021/04/09 06:52:14;;;;;;;7.22;5.75;;;7.00;99.90;;;;;;4958365;28;20234;-76
2021/04/09 06:54:43;;;;;;;9.90;6.03;;;7.20;99.70;;;;;;4961902;28;20207;-76
2021/04/09 06:57:13;;;;;;;8.20;6.20;;;7.50;98.30;;;;;;4955362;28;20330;-76
2021/04/09 06:59:42;;;;;;;7.72;5.93;;;7.70;97.80;;;;;;4956899;28;20353;-76
2021/04/09 07:02:14;;;;;;;7.63;6.82;;;7.70;97.90;;;;;;4975728;28;20198;-75
2021/04/09 07:04:42;;;;;;;8.35;6.60;;;7.90;96.70;;;;;;4957628;28;20219;-75
2021/04/09 07:07:16;;;;;;;9.60;6.78;;;8.00;96.20;;;;;;4974320;28;20203;-75
2021/04/09 07:09:44;;;;;;;10.07;6.30;;;8.00;94.80;;;;;;4975322;28;20530;-75
2021/04/09 07:12:25;;;;;;;9.35;6.65;;;8.10;95.00;;;;;;4975416;28;20208;-75
2021/04/09 07:15:07;;;;;;;11.88;6.53;;;8.10;95.00;;;;;;4938685;28;20226;-75
2021/04/09 07:17:36;;;;;;;10.80;7.00;;;8.20;94.30;;;;;;4974778;28;20207;-75
2021/04/09 07:20:15;;;;;;;9.52;6.63;;;8.30;94.30;;;;;;4957032;28;20243;-75
2021/04/09 07:22:50;;;;;;;11.73;7.63;;;8.30;94.00;;;;;;4975237;28;20207;-75
2021/04/09 07:25:24;;;;;;;9.68;7.25;;;8.40;94.10;;;;;;4953350;28;20231;-75
2021/04/09 07:28:13;;;;;;;13.57;8.00;;;8.40;94.40;;;;;;4975585;28;20215;-75
2021/04/09 07:30:51;;;;;;;8.20;6.40;;;8.60;92.70;;;;;;4960701;28;20876;-75
2021/04/09 07:33:22;;;;;;;9.55;6.22;;;8.80;92.30;;;;;;4973740;28;20739;-75
2021/04/09 07:35:50;;;;;;;7.70;6.80;;;8.70;92.10;;;;;;4956438;28;20269;-75
2021/04/09 07:38:19;;;;;;;8.65;5.80;;;8.70;92.10;;;;;;4956715;28;20226;-75
2021/04/09 07:41:05;;;;;;;8.20;6.43;;;8.70;91.80;;;;;;4973124;28;20306;-75
2021/04/09 07:43:37;;;;;;;12.02;6.75;;;8.60;92.00;;;;;;4957690;28;20242;-75
2021/04/09 07:46:07;;;;;;;11.43;5.57;;;8.50;92.60;;;;;;4955615;28;20252;-75
2021/04/09 07:48:38;;;;;;;8.05;5.22;;;8.50;92.70;;;;;;4975137;28;20219;-75
2021/04/09 07:51:18;;;;;;;7.60;5.85;;;8.50;92.90;;;;;;4960765;28;20723;-75
2021/04/09 07:53:46;;;;;;;9.52;6.35;;;8.70;92.40;;;;;;4964445;28;20340;-75
2021/04/09 07:56:15;;;;;;;12.07;5.95;;;8.70;92.90;;;;;;4976039;28;20278;-75
2021/04/09 07:58:46;;;;;;;8.43;5.90;;;8.60;92.70;;;;;;4962991;28;20213;-75
2021/04/09 08:01:21;;;;;;;8.25;6.13;;;8.60;93.00;;;;;;4961513;28;20310;-75
2021/04/09 08:03:48;;;;;;;10.25;5.53;;;8.60;92.90;;;;;;4957402;28;20234;-75
2021/04/09 08:06:18;;;;;;;11.73;5.10;;;8.50;93.00;;;;;;4955502;28;20215;-75
2021/04/09 08:08:47;;;;;;;16.13;6.68;;;8.70;92.20;;;;;;4973271;28;20212;-75
2021/04/09 08:11:32;;;;;;;10.55;5.32;;;8.90;92.00;;;;;;4956212;28;20598;-75
2021/04/09 08:14:27;;;;;;;7.53;5.20;;;9.30;90.70;;;;;;4957435;28;20216;-75
2021/04/09 08:16:55;;;;;;;6.70;4.10;;;9.40;90.00;;;;;;4937232;29;20544;-75
2021/04/09 08:19:23;;;;;;;7.30;4.40;;;9.80;83.00;;;;;;4973637;28;20466;-75
2021/04/09 08:21:51;;;;;;;7.80;4.93;;;10.00;80.80;;;;;;4972118;28;20528;-75
2021/04/09 08:24:20;;;;;;;5.27;3.67;;;10.00;79.00;;;;;;4972011;28;21084;-75
2021/04/09 08:26:51;;;;;;;5.60;4.67;;;9.90;83.10;;;;;;4972503;28;20521;-75
2021/04/09 08:29:23;;;;;;;9.67;5.80;;;9.90;83.70;;;;;;4958070;28;20473;-75
2021/04/09 08:31:51;;;;;;;7.30;4.17;;;;;;;;;;4958523;28;20474;-75
2021/04/09 08:34:22;;;;;;;10.07;4.63;;;10.20;78.30;;;;;;4957329;28;20463;-75
2021/04/09 08:36:50;;;;;;;6.70;4.63;;;10.50;78.10;;;;;;4955150;28;20474;-75
2021/04/09 08:39:37;;;;;;;11.20;4.33;;;10.70;75.90;;;;;;4962708;28;20486;-75
2021/04/09 08:42:05;;;;;;;6.03;4.23;;;10.90;73.20;;;;;;4952084;28;20470;-75
2021/04/09 08:44:32;;;;;;;9.73;5.00;;;10.90;70.00;;;;;;4970394;28;20462;-75
2021/04/09 08:47:02;;;;;;;6.87;4.50;;;10.70;72.80;;;;;;4973642;28;20454;-75
2021/04/09 08:49:30;;;;;;;6.20;4.20;;;10.60;74.40;;;;;;4955936;28;20817;-75
2021/04/09 08:52:03;;;;;;;10.27;4.30;;;10.60;71.90;;;;;;4971518;28;20817;-75
2021/04/09 08:54:30;;;;;;;6.83;5.07;;;10.80;70.10;;;;;;4967312;28;20901;-75
2021/04/09 08:56:58;;;;;;;7.93;4.80;;;11.00;70.40;;;;;;4955920;28;20458;-75
2021/04/09 08:59:38;;;;;;;10.73;5.23;;;11.10;70.00;;;;;;4969324;28;20471;-75
2021/04/09 09:02:24;;;;;;;9.97;4.50;;;11.00;71.20;;;;;;4969902;28;20542;-75
2021/04/09 09:04:58;;;;;;;7.10;4.53;;;11.10;71.20;;;;;;4972075;28;20454;-75
2021/04/09 09:07:44;;;;;;;7.70;5.70;;;11.10;69.10;;;;;;4969841;28;20469;-75
2021/04/09 09:10:23;;;;;;;7.23;4.93;;;11.30;68.60;;;;;;4953937;28;20550;-75
2021/04/09 09:13:08;;;;;;;7.03;4.93;;;11.60;66.80;;;;;;4955582;28;20832;-75
2021/04/09 09:15:41;;;;;;;6.23;4.53;;;11.70;67.70;;;;;;4954145;28;21011;-75
2021/04/09 09:18:28;;;;;;;8.77;5.20;;;11.90;65.60;;;;;;4954147;28;20494;-75
2021/04/09 09:21:24;;;;;;;17.23;5.47;;;12.20;66.50;;;;;;4916120;28;20726;-75
2021/04/09 09:23:56;;;;;;;5.23;4.40;;;12.40;61.90;;;;;;4967434;28;20543;-75
2021/04/09 09:26:41;;;;;;;7.57;4.80;;;12.60;63.40;;;;;;4942304;28;20568;-75
2021/04/09 09:29:26;;;;;;;6.50;5.00;;;12.70;60.10;;;;;;4971373;28;20462;-75
2021/04/09 09:31:59;;;;;;;6.50;5.27;;;12.60;61.50;;;;;;4930079;28;20477;-75
2021/04/09 09:34:30;;;;;;;7.43;4.60;;;12.40;62.30;;;;;;4939977;28;20493;-75
2021/04/09 09:37:19;;;;;;;5.33;4.60;;;12.30;63.50;;;;;;4972325;28;20470;-75
2021/04/09 09:39:58;;;;;;;8.80;4.80;;;12.30;62.40;;;;;;4969659;28;20838;-75
2021/04/09 09:42:28;;;;;;;5.20;4.47;;;12.40;63.60;;;;;;4972817;28;20465;-75
2021/04/09 09:44:58;;;;;;;8.50;4.77;;;12.60;60.00;;;;;;4949017;28;20490;-75
2021/04/09 09:47:33;;;;;;;7.17;4.00;;;12.70;60.90;;;;;;4950504;28;20559;-75
2021/04/09 09:50:02;;;;;;;5.03;4.37;;;12.60;61.50;;;;;;4974451;28;20477;-75
2021/04/09 09:52:57;;;;;;;8.10;4.60;;;12.50;63.30;;;;;;4973054;28;20462;-75
2021/04/09 09:55:35;;;;;;;4.50;4.10;;;12.50;62.80;;;;;;4954094;28;20990;-75
2021/04/09 09:58:26;;;;;;;5.20;4.50;;;12.50;60.40;;;;;;4970810;28;20517;-75
2021/04/09 10:01:06;;;;;;;7.03;4.97;;;12.50;61.90;;;;;;4957421;28;20550;-75
2021/04/09 10:03:37;;;;;;;6.83;4.23;;;12.90;60.20;;;;;;4971129;28;20543;-75
2021/04/09 10:06:12;;;;;;;5.67;4.80;;;13.10;60.90;;;;;;4954431;28;21015;-75
2021/04/09 10:08:58;;;;;;;5.83;4.43;;;13.40;60.40;;;;;;4949421;28;20469;-75
2021/04/09 10:11:26;;;;;;;7.07;4.30;;;13.50;58.60;;;;;;4939326;28;20469;-75
2021/04/09 10:13:54;;;;;;;5.00;4.20;;;13.40;59.10;;;;;;4955036;28;20533;-75
2021/04/09 10:16:25;;;;;;;5.63;4.00;;;13.20;59.50;;;;;;4953200;28;20566;-75
2021/04/09 10:18:58;;;;;;;7.27;4.63;;;13.20;59.40;;;;;;4956806;28;20496;-75
2021/04/09 10:21:38;;;;;;;6.87;4.77;;;13.10;59.70;;;;;;4954590;28;20465;-75
2021/04/09 10:24:20;;;;;;;7.87;4.50;;;12.90;60.40;;;;;;4951774;28;20447;-75
2021/04/09 10:26:59;;;;;;;7.57;4.83;;;12.60;59.50;;;;;;4953897;28;20470;-75
2021/04/09 10:29:36;;;;;;;5.00;4.50;;;12.50;61.70;;;;;;4968219;28;20467;-75
2021/04/09 10:32:14;;;;;;;8.43;5.67;;;12.40;62.70;;;;;;4968254;28;20541;-75
2021/04/09 10:34:41;;;;;;;6.87;4.70;;;12.30;66.30;;;;;;4953440;28;20467;-75
2021/04/09 10:37:19;;;;;;;5.10;4.03;;;12.30;64.00;;;;;;4955100;28;20442;-75
2021/04/09 10:39:46;;;;;;;7.20;4.47;;;12.30;63.40;;;;;;4955198;28;20472;-75
2021/04/09 10:42:13;;;;;;;9.23;4.40;;;12.50;62.00;;;;;;4955283;28;20948;-75
2021/04/09 10:44:39;;;;;;;5.50;4.97;;;12.50;64.20;;;;;;4953358;28;20474;-75
2021/04/09 10:47:08;;;;;;;4.40;3.80;;;12.70;63.60;;;;;;4954737;28;20505;-75
2021/04/09 10:49:38;;;;;;;6.50;5.20;;;12.70;63.00;;;;;;4938065;28;20451;-75
2021/04/09 10:52:16;;;;;;;6.07;5.20;;;12.90;60.50;;;;;;4955096;28;20826;-75
2021/04/09 10:54:45;;;;;;;7.30;5.10;;;12.80;61.30;;;;;;4950099;28;20965;-75
2021/04/09 10:57:21;;;;;;;9.40;6.57;;;12.90;60.80;;;;;;4968996;28;20450;-75
2021/04/09 10:59:50;;;;;;;9.80;6.77;;;13.00;60.60;;;;;;4932299;28;20463;-75
2021/04/09 11:02:24;;;;;;;7.80;5.83;;;12.90;61.30;;;;;;4969128;28;20431;-75
2021/04/09 11:04:55;;;;;;;7.00;5.10;;;12.90;60.80;;;;;;4971252;28;20473;-75
2021/04/09 11:07:42;;;;;;;6.70;4.03;;;13.00;62.30;;;;;;4953814;28;20972;-75
2021/04/09 11:10:33;;;;;;;6.73;4.30;;;13.00;63.00;;;;;;4969189;28;21006;-75
2021/04/09 11:13:00;;;;;;;5.73;5.00;;;13.10;62.70;;;;;;4987075;28;20445;-75
2021/04/09 11:15:43;;;;;;;6.03;4.47;;;13.20;62.30;;;;;;4942706;28;20486;-75
2021/04/09 11:18:50;;;;;;;5.97;4.97;;;13.30;60.60;;;;;;4958139;28;20454;-75
2021/04/09 11:21:50;;;;;;;5.13;4.63;;;13.30;60.40;;;;;;4974836;28;20470;-75
2021/04/09 11:24:38;;;;;;;8.37;5.00;;;13.30;60.80;;;;;;4968856;28;20504;-75
2021/04/09 11:27:28;;;;;;;6.13;4.43;;;13.40;61.30;;;;;;4957626;28;20438;-75
2021/04/09 11:30:18;;;;;;;5.30;4.30;;;13.50;57.80;;;;;;4953849;28;20625;-75
2021/04/09 11:32:53;;;;;;;9.37;5.50;;;13.40;58.10;;;;;;4956156;29;20502;-75
2021/04/09 11:35:22;;;;;;;6.90;5.70;;;13.50;58.50;;;;;;4971297;28;20457;-75
2021/04/09 11:37:58;;;;;;;9.33;6.00;;;13.60;61.80;;;;;;4955484;28;20865;-75
2021/04/09 11:40:42;;;;;;;6.60;5.40;;;13.60;59.70;;;;;;4971196;28;20996;-75
2021/04/09 11:43:13;;;;;;;10.77;5.40;;;13.70;58.00;;;;;;4960783;28;20463;-75
2021/04/09 11:45:51;;;;;;;6.40;5.07;;;13.90;57.60;;;;;;4955968;28;20529;-75
2021/04/09 11:48:22;;;;;;;9.03;5.80;;;14.00;56.40;;;;;;4974449;28;20481;-75
2021/04/09 11:50:49;;;;;;;9.53;5.60;;;14.10;58.30;;;;;;4957056;28;20460;-75
2021/04/09 11:53:18;;;;;;;5.70;5.00;;;14.20;56.30;;;;;;4968858;28;20458;-75
2021/04/09 11:55:50;;;;;;;9.00;5.77;;;14.20;55.60;;;;;;4974104;28;21052;-75
2021/04/09 11:58:21;;;;;;;5.73;5.13;;;14.20;57.60;;;;;;4956773;28;20465;-75
2021/04/09 12:00:57;;;;;;;6.73;5.17;;;14.20;55.40;;;;;;4973040;28;20526;-75
2021/04/09 12:03:44;;;;;;;6.13;5.10;;;14.10;57.70;;;;;;4974396;28;20455;-75
2021/04/09 12:06:16;;;;;;;5.50;5.00;;;14.10;60.50;;;;;;4973514;28;20880;-75
2021/04/09 12:08:43;;;;;;;5.93;4.63;;;14.40;56.10;;;;;;4973582;28;20464;-75
2021/04/09 12:11:11;;;;;;;5.47;4.67;;;14.40;55.70;;;;;;4973778;28;20840;-75
2021/04/09 12:13:43;;;;;;;5.13;4.30;;;14.40;56.30;;;;;;4974287;28;20459;-75
2021/04/09 12:16:10;;;;;;;11.73;5.73;;;14.40;54.50;;;;;;4954929;28;21011;-75
2021/04/09 12:18:37;;;;;;;6.07;5.23;;;14.20;53.30;;;;;;4957059;28;20467;-75
2021/04/09 12:21:04;;;;;;;7.27;5.60;;;14.20;54.20;;;;;;4955918;28;20474;-75
2021/04/09 12:23:31;;;;;;;7.77;5.50;;;14.20;55.10;;;;;;4970859;28;20506;-75
2021/04/09 12:26:02;;;;;;;6.40;5.80;;;14.20;54.90;;;;;;4944168;28;21054;-75
2021/04/09 12:28:28;;;;;;;8.17;5.47;;;14.20;56.40;;;;;;4991194;28;20516;-75
2021/04/09 12:30:55;;;;;;;7.07;5.77;;;14.30;57.40;;;;;;4955645;28;20471;-75
2021/04/09 12:33:23;;;;;;;9.40;6.00;;;14.40;54.30;;;;;;4937263;29;20459;-75
2021/04/09 12:35:50;;;;;;;7.03;5.00;;;14.40;55.90;;;;;;4961974;28;20553;-75
2021/04/09 12:38:18;;;;;;;7.07;5.43;;;14.40;56.30;;;;;;4973455;28;20468;-75
2021/04/09 12:40:45;;;;;;;10.33;6.13;;;14.50;54.80;;;;;;4940634;28;20465;-75
2021/04/09 12:43:11;;;;;;;6.53;5.40;;;14.20;55.60;;;;;;4942898;28;20965;-75
2021/04/09 12:45:38;;;;;;;6.97;4.87;;;14.30;53.60;;;;;;4957993;28;20498;-75
2021/04/09 12:48:05;;;;;;;4.30;3.90;;;14.40;52.60;;;;;;4956178;28;20517;-75
2021/04/09 12:50:32;;;;;;;9.53;5.03;;;14.40;53.30;;;;;;4974395;28;20455;-75
2021/04/09 12:52:58;;;;;;;5.57;4.03;;;14.50;56.80;;;;;;4959028;28;20455;-75
2021/04/09 12:55:45;;;;;;;6.03;4.07;;;14.40;52.10;;;;;;4973227;28;20474;-75
2021/04/09 12:58:13;;;;;;;5.37;4.23;;;14.40;53.40;;;;;;4974335;28;20534;-75
2021/04/09 13:00:39;;;;;;;5.20;4.50;;;14.30;53.60;;;;;;4960132;28;20468;-75
2021/04/09 13:03:05;;;;;;;7.00;4.53;;;14.30;51.10;;;;;;4954704;29;20551;-75
2021/04/09 13:05:32;;;;;;;5.87;4.30;;;14.30;55.00;;;;;;4953804;28;21040;-75
2021/04/09 13:07:58;;;;;;;7.97;4.23;;;14.20;53.20;;;;;;4954369;28;20551;-75
2021/04/09 13:10:37;;;;;;;4.90;3.60;;;14.20;52.40;;;;;;4936902;29;20471;-75